createdAt,value
2022-12-26T00:00:18.922Z,21.15
2022-12-26T00:02:47.476Z,20.88
2022-12-26T00:05:15.813Z,21.70
2022-12-26T00:07:47.096Z,22.13
2022-12-26T00:10:15.252Z,23.75
2022-12-26T00:12:47.551Z,24.65
2022-12-26T00:15:15.868Z,24.25
2022-12-26T00:17:43.920Z,24.98
2022-12-26T00:20:12.856Z,24.83
2022-12-26T00:22:44.381Z,24.90
2022-12-26T00:25:15.243Z,23.58
2022-12-26T00:27:43.616Z,23.05
2022-12-26T00:30:16.951Z,22.33
2022-12-26T00:32:45.048Z,23.83
2022-12-26T00:35:13.082Z,23.70
2022-12-26T00:37:47.368Z,23.55
2022-12-26T00:40:15.354Z,23.90
2022-12-26T00:42:43.506Z,24.50
2022-12-26T00:45:14.685Z,22.83
2022-12-26T00:47:42.763Z,23.30
2022-12-26T00:50:15.671Z,23.90
2022-12-26T00:52:48.467Z,21.88
2022-12-26T00:55:16.514Z,22.63
2022-12-26T00:57:44.598Z,22.75
2022-12-26T01:00:15.668Z,22.27
2022-12-26T01:02:43.870Z,21.02
2022-12-26T01:05:13.230Z,23.08
2022-12-26T01:08:22.508Z,22.13
2022-12-26T01:10:30.055Z,23.80
2022-12-26T01:13:04.138Z,24.55
2022-12-26T01:15:34.221Z,23.17
2022-12-26T01:18:02.613Z,23.70
2022-12-26T01:20:30.951Z,23.65
2022-12-26T01:23:01.891Z,22.13
2022-12-26T01:25:30.002Z,23.00
2022-12-26T01:28:01.249Z,22.02
2022-12-26T01:30:29.436Z,23.25
2022-12-26T01:32:59.042Z,23.23
2022-12-26T01:35:27.236Z,21.90
2022-12-26T01:37:57.462Z,23.02
2022-12-26T01:40:25.781Z,21.95
2022-12-26T01:42:53.893Z,21.98
2022-12-26T01:45:32.315Z,21.50
2022-12-26T01:48:06.977Z,22.58
2022-12-26T01:50:43.112Z,23.45
2022-12-26T01:53:15.755Z,22.25
2022-12-26T01:55:47.107Z,22.48
2022-12-26T01:58:22.870Z,23.52
2022-12-26T02:00:52.191Z,23.13
2022-12-26T02:03:39.413Z,22.40
2022-12-26T02:06:11.248Z,22.95
2022-12-26T02:08:40.168Z,22.42
2022-12-26T02:11:14.937Z,20.40
2022-12-26T02:13:43.236Z,21.33
2022-12-26T02:16:14.783Z,21.48
2022-12-26T02:18:47.283Z,21.90
2022-12-26T02:21:38.709Z,21.70
2022-12-26T02:24:42.010Z,20.92
2022-12-26T02:27:25.432Z,19.95
2022-12-26T02:30:30.060Z,20.27
2022-12-26T02:33:35.579Z,20.95
2022-12-26T02:36:18.441Z,21.48
2022-12-26T02:38:58.160Z,21.40
2022-12-26T02:41:40.184Z,21.70
2022-12-26T02:44:36.071Z,20.65
2022-12-26T02:47:12.960Z,20.58
2022-12-26T02:50:15.414Z,20.83
2022-12-26T02:53:20.107Z,20.90
2022-12-26T02:56:08.468Z,21.75
2022-12-26T02:59:00.852Z,19.98
2022-12-26T03:01:50.730Z,21.30
2022-12-26T03:04:49.400Z,21.92
2022-12-26T03:07:41.817Z,21.48
2022-12-26T03:10:37.403Z,21.30
2022-12-26T03:13:13.133Z,20.67
2022-12-26T03:16:05.259Z,21.77
2022-12-26T03:18:58.009Z,20.70
2022-12-26T03:21:29.702Z,19.40
2022-12-26T03:23:58.443Z,18.50
2022-12-26T03:26:41.826Z,18.55
2022-12-26T03:29:29.874Z,17.45
2022-12-26T03:31:58.458Z,17.38
2022-12-26T03:34:26.871Z,17.08
2022-12-26T03:37:16.470Z,17.80
2022-12-26T03:40:08.066Z,17.05
2022-12-26T03:43:06.386Z,16.60
2022-12-26T03:46:05.852Z,15.77
2022-12-26T03:49:03.743Z,15.65
2022-12-26T03:52:09.919Z,16.20
2022-12-26T03:55:04.997Z,15.27
2022-12-26T03:57:58.014Z,15.05
2022-12-26T04:00:46.424Z,14.88
2022-12-26T04:03:33.368Z,14.35
2022-12-26T04:06:24.498Z,15.25
2022-12-26T04:09:17.029Z,14.45
2022-12-26T04:12:19.121Z,14.30
2022-12-26T04:15:11.805Z,13.95
2022-12-26T04:18:03.049Z,14.38
2022-12-26T04:20:41.006Z,14.45
2022-12-26T04:23:32.506Z,14.10
2022-12-26T04:26:23.622Z,13.65
2022-12-26T04:29:10.987Z,14.27
2022-12-26T04:32:04.188Z,12.80
2022-12-26T04:35:04.201Z,13.52
2022-12-26T04:37:53.034Z,13.40
2022-12-26T04:40:43.109Z,12.75
2022-12-26T04:43:46.605Z,12.00
2022-12-26T04:46:21.993Z,13.07
2022-12-26T04:49:11.958Z,13.23
2022-12-26T04:51:42.293Z,12.30
2022-12-26T04:54:10.582Z,12.88
2022-12-26T04:56:39.205Z,12.07
2022-12-26T04:59:07.511Z,12.40
2022-12-26T05:01:54.784Z,12.30
2022-12-26T05:04:40.541Z,12.27
2022-12-26T05:07:39.276Z,12.30
2022-12-26T05:10:13.200Z,12.40
2022-12-26T05:12:41.888Z,12.15
2022-12-26T05:15:11.031Z,12.88
2022-12-26T05:17:58.179Z,12.43
2022-12-26T05:20:43.879Z,12.30
2022-12-26T05:23:37.050Z,12.73
2022-12-26T05:26:23.942Z,12.30
2022-12-26T05:28:58.074Z,11.63
2022-12-26T05:31:35.438Z,12.55
2022-12-26T05:34:13.031Z,11.98
2022-12-26T05:36:48.027Z,12.88
2022-12-26T05:39:17.282Z,11.45
2022-12-26T05:41:48.230Z,12.48
2022-12-26T05:44:17.955Z,12.52
2022-12-26T05:46:50.126Z,12.50
2022-12-26T05:49:20.133Z,12.95
2022-12-26T05:51:53.366Z,12.48
2022-12-26T05:54:23.550Z,13.13
2022-12-26T05:56:52.057Z,13.05
2022-12-26T05:59:22.859Z,12.90
2022-12-26T06:01:52.993Z,13.18
2022-12-26T06:04:22.734Z,12.98
2022-12-26T06:06:52.363Z,13.05
2022-12-26T06:09:22.596Z,12.65
2022-12-26T06:11:51.356Z,13.38
2022-12-26T06:14:19.484Z,12.00
2022-12-26T06:16:47.717Z,13.02
2022-12-26T06:19:18.109Z,13.07
2022-12-26T06:21:47.842Z,13.32
2022-12-26T06:24:16.202Z,12.98
2022-12-26T06:26:46.382Z,13.15
2022-12-26T06:29:14.606Z,13.60
2022-12-26T06:31:42.941Z,12.80
2022-12-26T06:34:15.520Z,12.88
2022-12-26T06:36:47.153Z,12.70
2022-12-26T06:39:15.350Z,13.00
2022-12-26T06:41:43.920Z,11.80
2022-12-26T06:44:17.909Z,13.05
2022-12-26T06:46:46.825Z,12.55
2022-12-26T06:49:15.310Z,11.77
2022-12-26T06:51:45.177Z,11.98
2022-12-26T06:54:16.221Z,12.00
2022-12-26T06:56:44.538Z,11.45
2022-12-26T06:59:16.393Z,11.68
2022-12-26T07:01:44.757Z,11.75
2022-12-26T07:04:14.332Z,11.60
2022-12-26T07:06:42.481Z,11.68
2022-12-26T07:09:14.507Z,11.07
2022-12-26T07:11:46.374Z,11.68
2022-12-26T07:14:15.021Z,11.73
2022-12-26T07:16:45.575Z,10.80
2022-12-26T07:19:15.365Z,12.45
2022-12-26T07:21:46.057Z,11.45
2022-12-26T07:24:17.520Z,11.65
2022-12-26T07:26:48.249Z,11.30
2022-12-26T07:29:17.144Z,11.85
2022-12-26T07:31:48.843Z,12.50
2022-12-26T07:34:17.055Z,12.02
2022-12-26T07:36:45.212Z,11.98
2022-12-26T07:39:15.627Z,11.90
2022-12-26T07:41:58.984Z,11.90
2022-12-26T07:44:29.650Z,11.68
2022-12-26T07:46:59.198Z,11.65
2022-12-26T07:49:28.346Z,12.00
2022-12-26T07:51:56.876Z,12.30
2022-12-26T07:54:24.976Z,12.80
2022-12-26T07:57:21.739Z,12.52
2022-12-26T07:59:47.254Z,12.70
2022-12-26T08:02:21.718Z,12.73
2022-12-26T08:04:50.049Z,12.55
2022-12-26T08:07:18.231Z,12.13
2022-12-26T08:09:46.659Z,11.30
2022-12-26T08:12:21.464Z,11.82
2022-12-26T08:14:51.484Z,11.10
2022-12-26T08:17:19.744Z,11.25
2022-12-26T08:19:48.097Z,10.32
2022-12-26T08:22:16.598Z,10.10
2022-12-26T08:24:44.930Z,10.10
2022-12-26T08:27:13.115Z,10.30
2022-12-26T08:29:43.455Z,9.32
2022-12-26T08:32:13.104Z,9.90
2022-12-26T08:34:43.461Z,9.65
2022-12-26T08:37:14.836Z,9.63
2022-12-26T08:39:46.461Z,10.00
2022-12-26T08:42:14.768Z,9.02
2022-12-26T08:44:44.064Z,10.13
2022-12-26T08:47:13.568Z,10.73
2022-12-26T08:49:42.153Z,11.48
2022-12-26T08:52:10.326Z,10.57
2022-12-26T08:54:39.231Z,11.20
2022-12-26T08:57:07.432Z,10.65
2022-12-26T08:59:35.582Z,10.23
2022-12-26T09:02:03.803Z,9.55
2022-12-26T09:04:36.441Z,9.38
2022-12-26T09:07:04.726Z,8.30
2022-12-26T09:09:34.032Z,8.25
2022-12-26T09:12:05.425Z,7.00
2022-12-26T09:14:36.733Z,6.28
2022-12-26T09:17:05.870Z,6.40
2022-12-26T09:19:35.684Z,8.30
2022-12-26T09:22:21.032Z,7.75
2022-12-26T09:24:49.128Z,7.10
2022-12-26T09:27:17.083Z,8.43
2022-12-26T09:29:45.430Z,6.70
2022-12-26T09:32:13.544Z,8.02
2022-12-26T09:34:43.097Z,8.07
2022-12-26T09:37:11.416Z,8.50
2022-12-26T09:39:40.443Z,7.80
2022-12-26T09:42:26.377Z,6.97
2022-12-26T09:45:03.786Z,6.72
2022-12-26T09:47:34.974Z,6.75
2022-12-26T09:50:12.967Z,7.15
2022-12-26T09:52:47.910Z,8.07
2022-12-26T09:55:29.371Z,7.80
2022-12-26T09:58:07.669Z,8.60
2022-12-26T10:00:43.104Z,7.70
2022-12-26T10:03:12.915Z,7.60
2022-12-26T10:05:58.488Z,8.98
2022-12-26T10:08:35.646Z,8.18
2022-12-26T10:11:05.743Z,7.57
2022-12-26T10:13:40.107Z,8.32
2022-12-26T10:16:14.960Z,8.38
2022-12-26T10:18:54.888Z,8.52
2022-12-26T10:21:39.071Z,8.30
2022-12-26T10:24:15.951Z,7.63
2022-12-26T10:26:55.789Z,7.95
2022-12-26T10:29:28.869Z,6.10
2022-12-26T10:32:00.913Z,6.90
2022-12-26T10:34:32.639Z,7.15
2022-12-26T10:37:08.463Z,7.73
2022-12-26T10:39:43.399Z,6.13
2022-12-26T10:42:20.075Z,6.10
2022-12-26T10:44:48.161Z,6.72
2022-12-26T10:47:28.569Z,6.20
2022-12-26T10:49:59.891Z,5.80
2022-12-26T10:52:36.098Z,6.93
2022-12-26T10:55:29.301Z,5.93
2022-12-26T10:58:00.848Z,7.22
2022-12-26T11:00:30.308Z,7.32
2022-12-26T11:03:23.746Z,7.38
2022-12-26T11:06:09.574Z,7.80
2022-12-26T11:08:43.886Z,6.95
2022-12-26T11:11:21.441Z,7.25
2022-12-26T11:14:00.962Z,6.78
2022-12-26T11:16:33.100Z,5.50
2022-12-26T11:19:04.563Z,5.60
2022-12-26T11:21:34.234Z,5.00
2022-12-26T11:24:20.713Z,5.57
2022-12-26T11:26:49.512Z,6.43
2022-12-26T11:29:20.597Z,7.85
2022-12-26T11:31:55.000Z,6.65
2022-12-26T11:34:32.655Z,7.53
2022-12-26T11:37:01.274Z,7.18
2022-12-26T11:39:34.634Z,4.80
2022-12-26T11:42:09.971Z,5.72
2022-12-26T11:44:42.079Z,6.25
2022-12-26T11:47:13.171Z,5.50
2022-12-26T11:49:47.453Z,4.43
2022-12-26T11:52:37.864Z,4.65
2022-12-26T11:55:32.773Z,6.03
2022-12-26T11:58:06.436Z,5.32
2022-12-26T12:00:36.080Z,4.85
2022-12-26T12:03:11.036Z,4.80
2022-12-26T12:05:47.195Z,6.10
2022-12-26T12:08:38.635Z,6.00
2022-12-26T12:11:26.482Z,5.87
2022-12-26T12:14:17.574Z,6.05
2022-12-26T12:17:07.562Z,5.47
2022-12-26T12:19:59.875Z,5.53
2022-12-26T12:22:54.094Z,6.10
2022-12-26T12:25:46.555Z,8.27
2022-12-26T12:28:45.582Z,7.80
2022-12-26T12:31:21.791Z,7.85
2022-12-26T12:33:54.969Z,8.30
2022-12-26T12:36:32.855Z,7.90
2022-12-26T12:39:08.121Z,8.00
2022-12-26T12:42:02.808Z,7.80
2022-12-26T12:44:57.127Z,6.68
2022-12-26T12:47:33.563Z,7.63
2022-12-26T12:50:10.215Z,6.15
2022-12-26T12:52:49.585Z,8.05
2022-12-26T12:55:53.219Z,6.50
2022-12-26T12:58:45.931Z,5.90
2022-12-26T13:01:21.578Z,5.03
2022-12-26T13:03:54.755Z,6.30
2022-12-26T13:06:29.580Z,5.30
2022-12-26T13:09:03.627Z,4.23
2022-12-26T13:11:36.769Z,4.07
2022-12-26T13:14:14.873Z,4.05
2022-12-26T13:17:01.799Z,3.25
2022-12-26T13:19:41.912Z,2.20
2022-12-26T13:26:10.694Z,2.13
2022-12-26T13:29:03.056Z,2.08
2022-12-26T13:31:37.193Z,1.37
2022-12-26T13:34:11.492Z,1.67
2022-12-26T13:36:55.662Z,2.05
2022-12-26T13:39:42.527Z,1.77
2022-12-26T13:42:53.354Z,1.40
2022-12-26T13:45:40.825Z,1.60
2022-12-26T13:48:42.015Z,1.55
2022-12-26T13:51:59.346Z,1.40
2022-12-26T13:54:29.160Z,1.27
2022-12-26T13:57:40.022Z,1.20
2022-12-26T14:00:24.435Z,1.53
2022-12-26T14:03:30.617Z,1.53
2022-12-26T14:06:19.913Z,1.30
2022-12-26T14:09:22.519Z,1.50
2022-12-26T14:12:30.642Z,1.83
2022-12-26T14:15:33.156Z,1.33
2022-12-26T14:18:28.231Z,1.50
2022-12-26T14:21:13.845Z,2.13
2022-12-26T14:23:47.456Z,1.70
2022-12-26T14:26:32.085Z,1.53
2022-12-26T14:29:13.716Z,1.93
2022-12-26T14:31:50.447Z,1.43
2022-12-26T14:34:33.862Z,2.50
2022-12-26T14:37:15.441Z,1.90
2022-12-26T14:40:01.682Z,1.88
2022-12-26T14:42:49.019Z,1.87
2022-12-26T14:45:41.611Z,1.70
2022-12-26T14:48:48.431Z,1.83
2022-12-26T14:51:35.127Z,2.10
2022-12-26T14:54:35.968Z,2.23
2022-12-26T14:57:44.515Z,2.47
2022-12-26T15:00:31.463Z,1.80
2022-12-26T15:03:32.233Z,1.55
2022-12-26T15:06:29.177Z,1.37
2022-12-26T15:09:14.572Z,2.40
2022-12-26T15:12:06.134Z,2.30
2022-12-26T15:15:18.012Z,2.67
2022-12-26T15:17:53.393Z,1.47
2022-12-26T15:20:58.464Z,1.70
2022-12-26T15:27:23.722Z,2.15
2022-12-26T15:30:25.815Z,2.73
2022-12-26T15:33:02.782Z,2.27
2022-12-26T15:35:36.038Z,1.92
2022-12-26T15:38:29.874Z,2.70
2022-12-26T15:41:08.513Z,2.20
2022-12-26T15:43:53.871Z,2.80
2022-12-26T15:46:28.806Z,2.00
2022-12-26T15:49:22.674Z,2.20
2022-12-26T15:52:02.893Z,2.00
2022-12-26T15:55:12.925Z,2.27
2022-12-26T15:57:52.000Z,1.90
2022-12-26T16:00:23.688Z,2.90
2022-12-26T16:03:20.437Z,3.17
2022-12-26T16:06:02.872Z,2.57
2022-12-26T16:09:01.398Z,2.40
2022-12-26T16:11:56.987Z,2.47
2022-12-26T16:14:30.358Z,2.27
2022-12-26T16:17:18.123Z,2.40
2022-12-26T16:19:49.774Z,2.13
2022-12-26T16:22:40.479Z,1.80
2022-12-26T16:25:09.833Z,2.03
2022-12-26T16:27:40.227Z,2.40
2022-12-26T16:30:17.122Z,2.43
2022-12-26T16:32:47.756Z,2.57
2022-12-26T16:35:21.959Z,2.27
2022-12-26T16:37:52.444Z,2.30
2022-12-26T16:40:24.760Z,2.37
2022-12-26T16:42:59.355Z,2.67
2022-12-26T16:45:30.001Z,2.47
2022-12-26T16:47:59.134Z,2.40
2022-12-26T16:50:32.589Z,2.80
2022-12-26T16:53:19.065Z,3.03
2022-12-26T16:55:49.133Z,2.97
2022-12-26T16:58:24.277Z,2.87
2022-12-26T17:01:03.482Z,2.63
2022-12-26T17:03:38.898Z,2.30
2022-12-26T17:06:13.048Z,2.80
2022-12-26T17:08:46.614Z,2.47
2022-12-26T17:11:15.442Z,2.60
2022-12-26T17:13:50.949Z,2.37
2022-12-26T17:16:19.349Z,3.30
2022-12-26T17:18:50.020Z,2.50
2022-12-26T17:21:31.159Z,2.20
2022-12-26T17:24:26.878Z,2.63
2022-12-26T17:27:10.918Z,2.60
2022-12-26T17:29:49.086Z,2.50
2022-12-26T17:32:25.716Z,2.30
2022-12-26T17:34:54.079Z,2.60
2022-12-26T17:37:26.257Z,2.10
2022-12-26T17:40:03.252Z,2.40
2022-12-26T17:42:38.369Z,2.33
2022-12-26T17:45:07.534Z,2.50
2022-12-26T17:47:35.650Z,2.40
2022-12-26T17:50:03.693Z,2.60
2022-12-26T17:52:34.118Z,2.80
2022-12-26T17:55:04.256Z,3.70
2022-12-26T17:57:32.506Z,3.43
2022-12-26T18:00:00.856Z,3.90
2022-12-26T18:02:30.210Z,3.77
2022-12-26T18:04:58.348Z,2.87
2022-12-26T18:07:31.484Z,2.60
2022-12-26T18:10:02.553Z,2.67
2022-12-26T18:12:31.037Z,2.40
2022-12-26T18:15:02.101Z,2.30
2022-12-26T18:17:37.321Z,2.10
2022-12-26T18:20:07.874Z,2.00
2022-12-26T18:22:36.155Z,1.70
2022-12-26T18:25:06.927Z,1.77
2022-12-26T18:27:35.132Z,1.53
2022-12-26T18:30:03.489Z,1.70
2022-12-26T18:32:33.583Z,1.87
2022-12-26T18:35:02.380Z,1.90
2022-12-26T18:37:31.831Z,2.27
2022-12-26T18:40:00.049Z,2.57
2022-12-26T18:42:29.852Z,1.60
2022-12-26T18:44:58.638Z,1.80
2022-12-26T18:47:26.670Z,1.80
2022-12-26T18:49:54.777Z,1.77
2022-12-26T18:52:22.992Z,1.77
2022-12-26T18:54:50.996Z,2.00
2022-12-26T18:57:21.729Z,1.90
2022-12-26T18:59:51.332Z,1.60
2022-12-26T19:02:20.744Z,1.80
2022-12-26T19:04:49.972Z,1.53
2022-12-26T19:07:22.853Z,1.63
2022-12-26T19:09:55.051Z,1.53
2022-12-26T19:12:23.460Z,1.60
2022-12-26T19:14:54.037Z,2.10
2022-12-26T19:17:22.185Z,1.93
2022-12-26T19:19:50.393Z,2.07
2022-12-26T19:22:18.489Z,2.17
2022-12-26T19:24:46.957Z,2.10
2022-12-26T19:27:15.063Z,1.73
2022-12-26T19:29:43.231Z,1.58
2022-12-26T19:32:12.830Z,1.90
2022-12-26T19:34:41.126Z,1.90
2022-12-26T19:37:09.523Z,1.58
2022-12-26T19:39:37.626Z,1.60
2022-12-26T19:42:05.690Z,2.10
2022-12-26T19:44:34.087Z,2.00
2022-12-26T19:47:11.837Z,1.90
2022-12-26T19:49:43.110Z,1.85
2022-12-26T19:52:11.828Z,2.80
2022-12-26T19:54:40.059Z,1.40
2022-12-26T19:57:08.505Z,2.50
2022-12-26T19:59:39.587Z,2.50
2022-12-26T20:02:11.245Z,2.40
2022-12-26T20:04:39.728Z,1.70
2022-12-26T20:07:09.269Z,1.77
2022-12-26T20:09:37.552Z,1.90
2022-12-26T20:12:06.202Z,2.03
2022-12-26T20:14:34.955Z,1.67
2022-12-26T20:17:07.491Z,2.50
2022-12-26T20:19:36.805Z,2.33
2022-12-26T20:22:05.647Z,2.00
2022-12-26T20:24:35.783Z,2.20
2022-12-26T20:27:04.478Z,2.47
2022-12-26T20:29:35.439Z,2.15
2022-12-26T20:32:06.754Z,2.50
2022-12-26T20:34:34.903Z,2.50
2022-12-26T20:37:03.097Z,4.73
2022-12-26T20:39:32.273Z,2.97
2022-12-26T20:42:02.203Z,4.00
2022-12-26T20:44:30.549Z,3.53
2022-12-26T20:46:58.707Z,4.23
2022-12-26T20:49:27.038Z,5.33
2022-12-26T20:51:58.211Z,7.47
2022-12-26T20:54:27.199Z,5.18
2022-12-26T20:56:55.554Z,5.73
2022-12-26T20:59:24.975Z,5.83
2022-12-26T21:01:53.173Z,4.77
2022-12-26T21:04:24.293Z,7.37
2022-12-26T21:06:52.533Z,5.77
2022-12-26T21:09:20.602Z,5.37
2022-12-26T21:11:48.756Z,5.33
2022-12-26T21:14:19.014Z,5.03
2022-12-26T21:16:50.316Z,5.17
2022-12-26T21:19:21.447Z,5.70
2022-12-26T21:21:58.320Z,5.10
2022-12-26T21:24:31.198Z,4.63
2022-12-26T21:26:59.148Z,4.23
2022-12-26T21:29:28.824Z,3.17
2022-12-26T21:32:02.404Z,3.13
2022-12-26T21:34:32.944Z,3.10
2022-12-26T21:37:18.612Z,3.07
2022-12-26T21:39:47.682Z,3.10
2022-12-26T21:42:15.913Z,3.40
2022-12-26T21:44:43.984Z,3.50
2022-12-26T21:47:14.917Z,3.80
2022-12-26T21:49:45.116Z,3.40
2022-12-26T21:52:13.301Z,3.28
2022-12-26T21:54:58.640Z,3.30
2022-12-26T21:57:26.786Z,2.95
2022-12-26T21:59:58.313Z,3.00
2022-12-26T22:02:50.779Z,2.53
2022-12-26T22:05:20.745Z,2.63
2022-12-26T22:07:52.564Z,2.47
2022-12-26T22:10:37.985Z,2.37
2022-12-26T22:13:07.173Z,2.27
2022-12-26T22:15:59.178Z,2.63
2022-12-26T22:18:30.585Z,2.73
2022-12-26T22:21:05.130Z,4.30
2022-12-26T22:23:33.123Z,3.15
2022-12-26T22:26:02.026Z,2.90
2022-12-26T22:28:30.678Z,3.30
2022-12-26T22:30:59.367Z,3.10
2022-12-26T22:33:29.944Z,4.23
2022-12-26T22:36:06.653Z,4.60
2022-12-26T22:38:35.448Z,4.70
2022-12-26T22:41:04.223Z,5.30
2022-12-26T22:43:33.262Z,5.77
2022-12-26T22:46:04.479Z,7.67
2022-12-26T22:48:34.174Z,8.77
2022-12-26T22:51:02.643Z,9.97
2022-12-26T22:53:32.794Z,10.67
2022-12-26T22:56:02.879Z,12.33
2022-12-26T22:58:32.461Z,13.97
2022-12-26T23:01:00.990Z,14.97
2022-12-26T23:03:30.354Z,14.90
2022-12-26T23:06:02.451Z,15.33
2022-12-26T23:08:31.267Z,15.40
2022-12-26T23:11:00.470Z,16.30
2022-12-26T23:13:29.250Z,16.30
2022-12-26T23:16:07.505Z,16.43
2022-12-26T23:19:06.102Z,17.20
2022-12-26T23:21:40.178Z,17.50
2022-12-26T23:24:10.555Z,19.03
2022-12-26T23:26:38.876Z,18.47
2022-12-26T23:29:24.787Z,19.30
2022-12-26T23:31:53.043Z,19.30
2022-12-26T23:34:21.803Z,19.97
2022-12-26T23:36:51.682Z,20.53
2022-12-26T23:39:22.474Z,21.07
2022-12-26T23:41:50.628Z,21.23
2022-12-26T23:44:21.936Z,21.77
2022-12-26T23:46:50.178Z,21.77
2022-12-26T23:49:18.252Z,22.40
2022-12-26T23:51:46.405Z,22.07
2022-12-26T23:54:15.873Z,20.97
2022-12-26T23:56:46.169Z,22.47
2022-12-26T23:59:14.437Z,22.67
